Aérodrome :
LOGIN :

S'inscrire | Disclaimer

   EN    FR    IT 

 










Légende :    VFR   VFR Marginal   IFR   IFR Intensif   IFR Très Intensif
Visi : 
Plafond : 
>= 8 km
>= 3000ft
5 à 8 km
1000 à 3000 ft
1500m à 5 km
500 à 1000 ft
800 à 1500m
200 à 500 ft
< 800m
< 200 ft
Symboles :   Orages  Brouillard  Fortes neiges  Fortes précipitations  Vent > 20 kt
SIGMETs :   Divers  Orages  Givrage  Turbulence  Onde Orograph.  Cendres Volcan.






- Altitude de l'aérodrome : 443 ft
- Code IATA : SQQ


EYSA - Siauliai

DERNIER METAR :
  • 162320Z AUTO 16010KT 9000NDV BR BKN007 08/07 Q1017 R14L/29//95 R14R/29//95

METARs EXPIRÉS :
  • 162250Z 15010KT 8000 BKN007 08/07 Q1016 R14L/29//95 R14R/29//95 GRN NOSIG
  • 162220Z 16010KT 9000 BKN007 BKN084 BKN130 08/07 Q1016 R14L/29//95 R14R/29//95 GRN NOSIG
  • 162150Z 15012KT 9000 BKN008 08/07 Q1016 R14L/29//95 R14R/29//95 GRN NOSIG
  • 162120Z 15012KT 9000 BKN008 BKN084 08/07 Q1016 R14L/29//95 R14R/29//95 GRN NOSIG

TAF TAF EYSA
Valide du 17 à 00h jusqu'au 17 à 09h UTC


162301Z 1700/1709 16010KT 5000 BR BKN005 OVC010
TEMPO 1700/1709 0500 FG VV002



MET'MAP, la Météo Aéronautique d'un coup d'oeil ! - Copyright ORBIFLY Décembre 2007 - Disclaimer

ORBIFLY MET'MAP TEAM :

Programmation & Développement : Alexandra Zaïnal
Conception & Développement : Baudouin d'Aumeries
Co-Programmation & Développement : Marc-Olivier Méhu
Soutien technique & logistique : Manuel Goepfert

Contact : metmap@orbifly.com




SOURCES & CREDITS :

   NOAA